createdAt,value
2022-12-19T00:00:29.909Z,1003.34
2022-12-19T00:01:31.107Z,1003.32
2022-12-19T00:02:30.049Z,1003.33
2022-12-19T00:03:29.986Z,1003.33
2022-12-19T00:04:29.828Z,1003.27
2022-12-19T00:05:29.794Z,1003.30
2022-12-19T00:06:29.785Z,1003.27
2022-12-19T00:07:29.763Z,1003.33
2022-12-19T00:08:29.731Z,1003.29
2022-12-19T00:09:29.705Z,1003.29
2022-12-19T00:10:29.684Z,1003.26
2022-12-19T00:11:29.697Z,1003.31
2022-12-19T00:12:29.747Z,1003.29
2022-12-19T00:13:29.622Z,1003.21
2022-12-19T00:14:29.610Z,1003.24
2022-12-19T00:15:29.610Z,1003.17
2022-12-19T00:16:29.726Z,1003.16
2022-12-19T00:17:29.530Z,1003.15
2022-12-19T00:18:29.512Z,1003.16
2022-12-19T00:19:29.487Z,1003.18
2022-12-19T00:20:29.465Z,1003.18
2022-12-19T00:21:29.445Z,1003.18
2022-12-19T00:22:29.436Z,1003.20
2022-12-19T00:23:29.403Z,1003.21
2022-12-19T00:24:29.375Z,1003.19
2022-12-19T00:25:29.360Z,1003.17
2022-12-19T00:26:29.350Z,1003.15
2022-12-19T00:27:29.324Z,1003.14
2022-12-19T00:28:29.388Z,1003.15
2022-12-19T00:29:29.270Z,1003.18
2022-12-19T00:30:29.246Z,1003.14
2022-12-19T00:31:29.275Z,1003.07
2022-12-19T00:32:29.201Z,1003.04
2022-12-19T00:33:29.180Z,1003.06
2022-12-19T00:34:29.168Z,1003.07
2022-12-19T00:35:29.137Z,1003.04
2022-12-19T00:36:29.119Z,1003.06
2022-12-19T00:37:29.092Z,1003.01
2022-12-19T00:38:29.072Z,1003.05
2022-12-19T00:39:29.050Z,1003.00
2022-12-19T00:40:29.044Z,1003.00
2022-12-19T00:41:29.027Z,1002.99
2022-12-19T00:42:29.021Z,1002.97
2022-12-19T00:43:28.964Z,1002.97
2022-12-19T00:44:29.032Z,1002.98
2022-12-19T00:45:28.974Z,1003.01
2022-12-19T00:46:28.900Z,1003.00
2022-12-19T00:47:28.924Z,1002.98
2022-12-19T00:48:28.854Z,1002.92
2022-12-19T00:49:28.835Z,1002.85
2022-12-19T00:50:28.817Z,1002.87
2022-12-19T00:51:28.829Z,1002.81
2022-12-19T00:52:28.762Z,1002.83
2022-12-19T00:53:28.749Z,1002.84
2022-12-19T00:54:28.777Z,1002.85
2022-12-19T00:55:28.699Z,1002.85
2022-12-19T00:56:28.690Z,1002.84
2022-12-19T00:57:28.657Z,1002.90
2022-12-19T00:58:28.640Z,1002.88
2022-12-19T00:59:28.612Z,1002.88
2022-12-19T01:00:28.697Z,1002.83
2022-12-19T01:01:28.716Z,1002.83
2022-12-19T01:02:28.639Z,1002.89
2022-12-19T01:03:28.535Z,1002.89
2022-12-19T01:04:29.763Z,1002.79
2022-12-19T01:05:28.491Z,1002.82
2022-12-19T01:06:28.462Z,1002.81
2022-12-19T01:07:28.443Z,1002.92
2022-12-19T01:08:28.431Z,1002.89
2022-12-19T01:09:28.405Z,1002.91
2022-12-19T01:10:28.386Z,1002.89
2022-12-19T01:11:28.361Z,1002.94
2022-12-19T01:12:28.349Z,1002.92
2022-12-19T01:13:28.368Z,1002.93
2022-12-19T01:14:28.292Z,1002.93
2022-12-19T01:15:28.276Z,1002.94
2022-12-19T01:16:28.433Z,1003.00
2022-12-19T01:17:28.226Z,1002.94
2022-12-19T01:18:28.208Z,1003.00
2022-12-19T01:19:28.207Z,1002.95
2022-12-19T01:20:29.413Z,1002.94
2022-12-19T01:21:28.139Z,1002.93
2022-12-19T01:22:28.141Z,1002.91
2022-12-19T01:23:28.099Z,1002.95
2022-12-19T01:24:28.086Z,1002.96
2022-12-19T01:25:28.058Z,1003.00
2022-12-19T01:26:28.033Z,1003.08
2022-12-19T01:27:28.011Z,1003.07
2022-12-19T01:28:28.000Z,1003.13
2022-12-19T01:29:27.967Z,1003.07
2022-12-19T01:30:29.112Z,1003.08
2022-12-19T01:31:27.966Z,1003.06
2022-12-19T01:32:28.013Z,1003.10
2022-12-19T01:33:27.882Z,1003.03
2022-12-19T01:34:27.860Z,1003.09
2022-12-19T01:35:27.840Z,1003.04
2022-12-19T01:36:27.819Z,1003.01
2022-12-19T01:37:27.795Z,1002.98
2022-12-19T01:38:27.785Z,1003.02
2022-12-19T01:39:27.753Z,1003.01
2022-12-19T01:40:27.730Z,1003.03
2022-12-19T01:41:27.708Z,1003.02
2022-12-19T01:42:27.698Z,1003.10
2022-12-19T01:43:27.670Z,1003.14
2022-12-19T01:44:27.657Z,1003.15
2022-12-19T01:45:33.515Z,1003.16
2022-12-19T01:46:28.393Z,1003.18
2022-12-19T01:47:27.585Z,1003.18
2022-12-19T01:48:27.660Z,1003.13
2022-12-19T01:49:27.539Z,1003.16
2022-12-19T01:50:27.514Z,1003.12
2022-12-19T01:51:27.508Z,1003.10
2022-12-19T01:52:27.485Z,1003.12
2022-12-19T01:53:27.451Z,1003.05
2022-12-19T01:54:27.431Z,1003.06
2022-12-19T01:55:27.429Z,1002.99
2022-12-19T01:56:27.368Z,1002.93
2022-12-19T01:57:27.341Z,1002.90
2022-12-19T01:58:27.312Z,1002.85
2022-12-19T01:59:27.291Z,1002.79
2022-12-19T02:00:27.273Z,1002.74
2022-12-19T02:01:27.367Z,1002.73
2022-12-19T02:02:27.384Z,1002.73
2022-12-19T02:03:27.230Z,1002.66
2022-12-19T02:04:29.395Z,1002.68
2022-12-19T02:05:27.180Z,1002.64
2022-12-19T02:06:27.160Z,1002.62
2022-12-19T02:07:27.123Z,1002.56
2022-12-19T02:08:27.108Z,1002.61
2022-12-19T02:09:27.078Z,1002.51
2022-12-19T02:10:27.056Z,1002.46
2022-12-19T02:11:27.044Z,1002.42
2022-12-19T02:12:27.020Z,1002.29
2022-12-19T02:13:27.042Z,1002.28
2022-12-19T02:14:26.975Z,1002.25
2022-12-19T02:15:26.954Z,1002.27
2022-12-19T02:16:28.061Z,1002.22
2022-12-19T02:17:26.912Z,1002.19
2022-12-19T02:18:26.892Z,1002.15
2022-12-19T02:19:26.880Z,1002.18
2022-12-19T02:20:26.946Z,1002.12
2022-12-19T02:21:26.828Z,1002.11
2022-12-19T02:22:26.829Z,1002.07
2022-12-19T02:23:26.830Z,1001.99
2022-12-19T02:24:26.765Z,1002.03
2022-12-19T02:25:26.752Z,1002.07
2022-12-19T02:26:26.733Z,1002.10
2022-12-19T02:27:26.707Z,1002.12
2022-12-19T02:28:26.681Z,1002.18
2022-12-19T02:29:26.663Z,1002.17
2022-12-19T02:30:26.639Z,1002.25
2022-12-19T02:31:26.658Z,1002.18
2022-12-19T02:32:26.640Z,1002.22
2022-12-19T02:33:26.579Z,1002.25
2022-12-19T02:34:26.561Z,1002.23
2022-12-19T02:35:26.545Z,1002.25
2022-12-19T02:36:26.605Z,1002.27
2022-12-19T02:37:26.497Z,1002.26
2022-12-19T02:38:26.480Z,1002.30
2022-12-19T02:39:26.453Z,1002.32
2022-12-19T02:40:26.446Z,1002.30
2022-12-19T02:41:26.420Z,1002.30
2022-12-19T02:42:26.411Z,1002.37
2022-12-19T02:43:26.372Z,1002.35
2022-12-19T02:44:26.346Z,1002.36
2022-12-19T02:45:28.508Z,1002.30
2022-12-19T02:46:26.354Z,1002.31
2022-12-19T02:47:26.283Z,1002.28
2022-12-19T02:48:26.271Z,1002.30
2022-12-19T02:49:30.449Z,1002.28
2022-12-19T02:50:26.222Z,1002.33
2022-12-19T02:51:26.210Z,1002.31
2022-12-19T02:52:26.283Z,1002.34
2022-12-19T02:53:26.169Z,1002.34
2022-12-19T02:54:26.146Z,1002.39
2022-12-19T02:55:26.131Z,1002.37
2022-12-19T02:56:26.102Z,1002.35
2022-12-19T02:57:28.074Z,1002.34
2022-12-19T02:58:26.055Z,1002.36
2022-12-19T02:59:26.045Z,1002.32
2022-12-19T03:00:26.013Z,1002.27
2022-12-19T03:01:26.044Z,1002.34
2022-12-19T03:02:26.060Z,1002.35
2022-12-19T03:03:26.046Z,1002.38
2022-12-19T03:04:25.927Z,1002.47
2022-12-19T03:05:25.951Z,1002.39
2022-12-19T03:06:25.898Z,1002.47
2022-12-19T03:07:25.866Z,1002.48
2022-12-19T03:08:25.940Z,1002.46
2022-12-19T03:09:25.834Z,1002.47
2022-12-19T03:10:25.809Z,1002.45
2022-12-19T03:11:25.783Z,1002.46
2022-12-19T03:12:25.759Z,1002.46
2022-12-19T03:13:25.744Z,1002.44
2022-12-19T03:14:25.718Z,1002.47
2022-12-19T03:15:25.703Z,1002.45
2022-12-19T03:16:25.709Z,1002.40
2022-12-19T03:17:25.656Z,1002.39
2022-12-19T03:18:25.640Z,1002.35
2022-12-19T03:19:25.615Z,1002.37
2022-12-19T03:20:25.592Z,1002.33
2022-12-19T03:21:25.570Z,1002.35
2022-12-19T03:22:25.559Z,1002.31
2022-12-19T03:23:25.532Z,1002.28
2022-12-19T03:24:25.609Z,1002.31
2022-12-19T03:25:25.497Z,1002.31
2022-12-19T03:26:25.474Z,1002.28
2022-12-19T03:27:25.449Z,1002.30
2022-12-19T03:28:25.426Z,1002.29
2022-12-19T03:29:25.403Z,1002.24
2022-12-19T03:30:25.381Z,1002.23
2022-12-19T03:31:25.362Z,1002.23
2022-12-19T03:32:25.347Z,1002.22
2022-12-19T03:33:25.325Z,1002.15
2022-12-19T03:34:25.291Z,1002.16
2022-12-19T03:35:25.297Z,1002.15
2022-12-19T03:36:25.296Z,1002.16
2022-12-19T03:37:25.246Z,1002.07
2022-12-19T03:38:25.217Z,1002.06
2022-12-19T03:39:25.189Z,1002.06
2022-12-19T03:40:25.272Z,1002.04
2022-12-19T03:41:25.154Z,1002.05
2022-12-19T03:42:25.134Z,1002.03
2022-12-19T03:43:25.122Z,1002.00
2022-12-19T03:44:25.087Z,1001.98
2022-12-19T03:45:25.073Z,1002.01
2022-12-19T03:46:25.070Z,1001.99
2022-12-19T03:47:25.033Z,1001.97
2022-12-19T03:48:25.015Z,1001.96
2022-12-19T03:49:24.995Z,1001.97
2022-12-19T03:50:24.962Z,1001.94
2022-12-19T03:51:24.995Z,1001.91
2022-12-19T03:52:24.921Z,1001.97
2022-12-19T03:53:24.899Z,1001.93
2022-12-19T03:54:24.877Z,1001.97
2022-12-19T03:55:24.853Z,1001.95
2022-12-19T03:56:24.946Z,1001.96
2022-12-19T03:57:24.810Z,1001.96
2022-12-19T03:58:24.799Z,1002.00
2022-12-19T03:59:24.766Z,1001.98
2022-12-19T04:00:24.747Z,1001.95
2022-12-19T04:01:24.866Z,1001.95
2022-12-19T04:02:24.856Z,1001.96
2022-12-19T04:03:24.728Z,1001.95
2022-12-19T04:04:24.660Z,1001.98
2022-12-19T04:05:24.656Z,1001.95
2022-12-19T04:06:24.618Z,1001.99
2022-12-19T04:07:24.602Z,1001.96
2022-12-19T04:08:24.578Z,1001.98
2022-12-19T04:09:24.615Z,1001.96
2022-12-19T04:10:24.552Z,1002.01
2022-12-19T04:11:24.519Z,1001.96
2022-12-19T04:12:24.598Z,1001.98
2022-12-19T04:13:24.480Z,1001.98
2022-12-19T04:14:24.453Z,1001.99
2022-12-19T04:15:24.431Z,1002.01
2022-12-19T04:16:24.420Z,1002.01
2022-12-19T04:17:24.402Z,1002.03
2022-12-19T04:18:24.390Z,1002.00
2022-12-19T04:19:24.349Z,1002.01
2022-12-19T04:20:24.328Z,1002.05
2022-12-19T04:21:24.300Z,1002.05
2022-12-19T04:22:24.303Z,1002.08
2022-12-19T04:23:24.274Z,1002.05
2022-12-19T04:24:24.305Z,1002.03
2022-12-19T04:25:29.169Z,1002.04
2022-12-19T04:26:24.202Z,1002.07
2022-12-19T04:27:24.183Z,1002.06
2022-12-19T04:28:24.253Z,1002.07
2022-12-19T04:29:24.150Z,1002.09
2022-12-19T04:30:24.109Z,1002.14
2022-12-19T04:31:24.122Z,1002.08
2022-12-19T04:32:24.076Z,1002.15
2022-12-19T04:33:24.054Z,1002.13
2022-12-19T04:34:24.205Z,1002.15
2022-12-19T04:35:24.053Z,1002.17
2022-12-19T04:36:24.025Z,1002.14
2022-12-19T04:37:23.985Z,1002.11
2022-12-19T04:38:23.954Z,1002.10
2022-12-19T04:39:23.934Z,1002.07
2022-12-19T04:40:23.916Z,1002.09
2022-12-19T04:41:23.896Z,1002.07
2022-12-19T04:42:23.871Z,1002.05
2022-12-19T04:43:23.845Z,1002.03
2022-12-19T04:44:23.924Z,1002.03
2022-12-19T04:45:23.801Z,1002.02
2022-12-19T04:46:23.838Z,1001.99
2022-12-19T04:47:23.761Z,1002.00
2022-12-19T04:48:23.748Z,1001.99
2022-12-19T04:49:23.901Z,1001.92
2022-12-19T04:50:23.812Z,1001.94
2022-12-19T04:51:23.683Z,1001.96
2022-12-19T04:52:23.660Z,1001.93
2022-12-19T04:53:23.668Z,1001.95
2022-12-19T04:54:23.775Z,1001.88
2022-12-19T04:55:23.610Z,1001.86
2022-12-19T04:56:23.639Z,1001.79
2022-12-19T04:57:23.569Z,1001.78
2022-12-19T04:58:23.534Z,1001.78
2022-12-19T04:59:23.542Z,1001.81
2022-12-19T05:00:23.588Z,1001.79
2022-12-19T05:01:23.599Z,1001.77
2022-12-19T05:02:23.571Z,1001.73
2022-12-19T05:03:23.453Z,1001.75
2022-12-19T05:04:23.463Z,1001.72
2022-12-19T05:05:23.407Z,1001.67
2022-12-19T05:06:23.420Z,1001.75
2022-12-19T05:07:23.350Z,1001.71
2022-12-19T05:08:23.334Z,1001.79
2022-12-19T05:09:23.322Z,1001.77
2022-12-19T05:10:23.327Z,1001.75
2022-12-19T05:11:23.342Z,1001.77
2022-12-19T05:12:23.305Z,1001.79
2022-12-19T05:13:23.232Z,1001.76
2022-12-19T05:14:23.239Z,1001.73
2022-12-19T05:15:23.198Z,1001.73
2022-12-19T05:16:23.316Z,1001.72
2022-12-19T05:17:23.162Z,1001.69
2022-12-19T05:18:23.122Z,1001.69
2022-12-19T05:19:23.115Z,1001.65
2022-12-19T05:20:23.078Z,1001.64
2022-12-19T05:21:23.078Z,1001.60
2022-12-19T05:22:23.036Z,1001.59
2022-12-19T05:23:23.047Z,1001.60
2022-12-19T05:24:22.993Z,1001.56
2022-12-19T05:25:23.023Z,1001.64
2022-12-19T05:26:22.958Z,1001.58
2022-12-19T05:27:22.960Z,1001.61
2022-12-19T05:28:22.915Z,1001.61
2022-12-19T05:29:22.892Z,1001.64
2022-12-19T05:30:22.876Z,1001.62
2022-12-19T05:31:22.919Z,1001.68
2022-12-19T05:32:22.936Z,1001.67
2022-12-19T05:33:22.815Z,1001.66
2022-12-19T05:34:22.816Z,1001.66
2022-12-19T05:35:22.933Z,1001.65
2022-12-19T05:36:25.453Z,1001.69
2022-12-19T06:34:08.341Z,1001.60
2022-12-19T06:35:08.202Z,1001.63
2022-12-19T06:36:08.191Z,1001.61
2022-12-19T06:37:08.609Z,1001.63
2022-12-19T06:38:08.114Z,1001.64
2022-12-19T06:39:08.080Z,1001.66
2022-12-19T06:40:08.061Z,1001.66
2022-12-19T06:41:08.035Z,1001.68
2022-12-19T06:42:08.016Z,1001.63
2022-12-19T06:43:07.995Z,1001.64
2022-12-19T06:44:07.977Z,1001.65
2022-12-19T06:45:07.954Z,1001.69
2022-12-19T06:46:07.982Z,1001.73
2022-12-19T06:47:07.915Z,1001.76
2022-12-19T06:48:07.893Z,1001.79
2022-12-19T06:49:07.873Z,1001.79
2022-12-19T06:50:07.978Z,1001.77
2022-12-19T06:51:07.837Z,1001.80
2022-12-19T06:52:09.368Z,1001.81
2022-12-19T06:53:07.812Z,1001.76
2022-12-19T06:54:07.787Z,1001.74
2022-12-19T06:55:07.756Z,1001.74
2022-12-19T06:56:07.735Z,1001.73
2022-12-19T06:57:07.713Z,1001.70
2022-12-19T06:58:07.694Z,1001.70
2022-12-19T06:59:07.671Z,1001.68
2022-12-19T07:00:07.688Z,1001.65
2022-12-19T07:01:07.652Z,1001.63
2022-12-19T07:02:07.738Z,1001.70
2022-12-19T07:03:07.693Z,1001.70
2022-12-19T07:04:07.570Z,1001.65
2022-12-19T07:05:07.554Z,1001.66
2022-12-19T07:06:07.634Z,1001.69
2022-12-19T07:07:07.534Z,1001.68
2022-12-19T07:08:07.489Z,1001.68
2022-12-19T07:09:07.474Z,1001.67
2022-12-19T07:10:07.452Z,1001.66
2022-12-19T07:11:07.429Z,1001.68
2022-12-19T07:12:07.411Z,1001.65
2022-12-19T07:13:07.391Z,1001.60
2022-12-19T07:14:07.427Z,1001.64
2022-12-19T07:15:07.361Z,1001.65
2022-12-19T07:16:07.370Z,1001.69
2022-12-19T07:17:07.318Z,1001.74
2022-12-19T07:18:07.305Z,1001.73
2022-12-19T07:19:07.280Z,1001.81
2022-12-19T07:20:07.287Z,1001.78
2022-12-19T07:21:07.240Z,1001.75
2022-12-19T07:22:07.322Z,1001.77
2022-12-19T07:23:07.196Z,1001.76
2022-12-19T07:24:07.181Z,1001.78
2022-12-19T07:25:07.162Z,1001.78
2022-12-19T07:26:07.133Z,1001.79
2022-12-19T07:27:07.185Z,1001.77
2022-12-19T07:28:07.098Z,1001.72
2022-12-19T07:29:07.090Z,1001.69
2022-12-19T07:30:07.052Z,1001.72
2022-12-19T07:31:07.035Z,1001.70
2022-12-19T07:32:07.030Z,1001.74
2022-12-19T07:33:09.914Z,1001.73
2022-12-19T07:34:06.976Z,1001.82
2022-12-19T07:35:06.956Z,1001.80
2022-12-19T07:36:06.939Z,1001.81
2022-12-19T07:37:06.924Z,1001.81
2022-12-19T07:38:06.999Z,1001.77
2022-12-19T07:39:06.882Z,1001.73
2022-12-19T07:40:06.865Z,1001.72
2022-12-19T07:41:06.847Z,1001.74
2022-12-19T07:42:06.816Z,1001.76
2022-12-19T07:43:06.799Z,1001.76
2022-12-19T07:44:06.775Z,1001.73
2022-12-19T07:45:06.756Z,1001.70
2022-12-19T07:46:06.800Z,1001.65
2022-12-19T07:47:06.718Z,1001.63
2022-12-19T07:48:06.702Z,1001.60
2022-12-19T07:49:06.684Z,1001.58
2022-12-19T07:50:06.669Z,1001.56
2022-12-19T07:51:06.662Z,1001.51
2022-12-19T07:52:06.622Z,1001.50
2022-12-19T07:53:06.600Z,1001.50
2022-12-19T07:54:06.688Z,1001.50
2022-12-19T07:55:06.567Z,1001.55
2022-12-19T07:56:06.545Z,1001.60
2022-12-19T07:57:06.521Z,1001.63
2022-12-19T07:58:06.502Z,1001.63
2022-12-19T07:59:06.487Z,1001.61
2022-12-19T08:00:06.462Z,1001.59
2022-12-19T08:01:06.645Z,1001.59
2022-12-19T08:02:06.580Z,1001.57
2022-12-19T08:03:06.442Z,1001.57
2022-12-19T08:04:06.384Z,1001.52
2022-12-19T08:05:06.376Z,1001.50
2022-12-19T08:06:06.353Z,1001.52
2022-12-19T08:07:06.325Z,1001.49
2022-12-19T08:08:06.307Z,1001.48
2022-12-19T08:09:06.290Z,1001.48
2022-12-19T08:10:06.361Z,1001.47
2022-12-19T08:11:06.270Z,1001.48
2022-12-19T08:12:06.247Z,1001.48
2022-12-19T08:13:06.206Z,1001.54
2022-12-19T08:14:06.185Z,1001.56
2022-12-19T08:15:06.170Z,1001.58
2022-12-19T08:16:06.175Z,1001.60
2022-12-19T08:17:21.841Z,1001.61
2022-12-19T08:18:06.147Z,1001.60
2022-12-19T08:19:06.097Z,1001.62
2022-12-19T08:20:06.098Z,1001.60
2022-12-19T08:21:06.050Z,1001.64
2022-12-19T08:22:06.031Z,1001.61
2022-12-19T08:23:06.015Z,1001.63
2022-12-19T08:24:05.997Z,1001.62
2022-12-19T08:25:05.976Z,1001.59
2022-12-19T08:26:06.042Z,1001.61
2022-12-19T08:27:05.930Z,1001.62
2022-12-19T08:28:05.922Z,1001.55
2022-12-19T08:29:05.897Z,1001.55
2022-12-19T08:30:05.882Z,1001.59
2022-12-19T08:31:05.891Z,1001.59
2022-12-19T08:32:05.833Z,1001.60
2022-12-19T08:33:05.824Z,1001.60
2022-12-19T08:34:05.886Z,1001.65
2022-12-19T08:35:06.585Z,1001.72
2022-12-19T08:36:05.759Z,1001.70
2022-12-19T08:37:05.738Z,1001.78
2022-12-19T08:38:05.717Z,1001.73
2022-12-19T08:39:05.702Z,1001.74
2022-12-19T08:40:05.700Z,1001.72
2022-12-19T08:41:05.661Z,1001.77
2022-12-19T08:42:05.739Z,1001.77
2022-12-19T08:43:05.622Z,1001.68
2022-12-19T08:44:05.611Z,1001.63
2022-12-19T08:45:05.585Z,1001.58
2022-12-19T08:46:05.587Z,1001.53
2022-12-19T08:47:05.545Z,1001.54
2022-12-19T08:48:05.539Z,1001.55
2022-12-19T08:49:05.507Z,1001.57
2022-12-19T08:50:05.486Z,1001.56
2022-12-19T08:51:05.472Z,1001.52
2022-12-19T08:52:05.444Z,1001.50
2022-12-19T08:53:05.432Z,1001.49
2022-12-19T08:54:06.514Z,1001.44
2022-12-19T08:55:05.387Z,1001.43
2022-12-19T08:56:05.367Z,1001.36
2022-12-19T08:57:05.351Z,1001.35
2022-12-19T08:58:05.430Z,1001.33
2022-12-19T08:59:05.311Z,1001.30
2022-12-19T09:00:05.287Z,1001.31
2022-12-19T09:01:05.996Z,1001.31
2022-12-19T09:02:06.309Z,1001.29
2022-12-19T09:03:05.420Z,1001.31
2022-12-19T09:06:00.037Z,1001.31
2022-12-19T09:06:00.383Z,1001.34
2022-12-19T09:06:09.266Z,1001.35
2022-12-19T09:07:05.174Z,1001.34
2022-12-19T09:08:05.135Z,1001.35
2022-12-19T09:09:05.113Z,1001.36
2022-12-19T09:10:05.107Z,1001.37
2022-12-19T09:11:05.079Z,1001.39
2022-12-19T09:12:05.089Z,1001.43
2022-12-19T09:13:05.057Z,1001.44
2022-12-19T09:14:05.141Z,1001.48
2022-12-19T09:15:05.007Z,1001.47
2022-12-19T09:16:04.994Z,1001.49
2022-12-19T09:17:05.070Z,1001.50
2022-12-19T09:18:04.949Z,1001.51
2022-12-19T09:19:04.928Z,1001.52
2022-12-19T09:20:04.941Z,1001.51
2022-12-19T09:21:07.839Z,1001.52
2022-12-19T09:22:04.874Z,1001.48
2022-12-19T09:23:04.854Z,1001.52
2022-12-19T09:24:07.910Z,1001.53
2022-12-19T09:25:04.814Z,1001.57
2022-12-19T09:26:04.797Z,1001.57
2022-12-19T09:27:04.773Z,1001.60
2022-12-19T09:29:17.515Z,1001.63
2022-12-19T09:30:04.870Z,1001.62
2022-12-19T09:31:04.737Z,1001.59
2022-12-19T09:32:04.685Z,1001.62
2022-12-19T09:33:04.680Z,1001.65
2022-12-19T09:34:04.641Z,1001.61
2022-12-19T09:35:04.627Z,1001.60
2022-12-19T09:36:04.611Z,1001.59
2022-12-19T09:37:04.607Z,1001.58
2022-12-19T09:38:04.565Z,1001.59
2022-12-19T09:39:04.546Z,1001.58
2022-12-19T09:40:04.537Z,1001.54
2022-12-19T09:41:04.524Z,1001.53
2022-12-19T09:42:04.490Z,1001.59
2022-12-19T09:43:04.472Z,1001.59
2022-12-19T09:44:04.446Z,1001.61
2022-12-19T09:45:04.434Z,1001.57
2022-12-19T09:46:04.564Z,1001.56
2022-12-19T09:47:04.397Z,1001.59
2022-12-19T09:48:04.477Z,1001.64
2022-12-19T09:49:04.360Z,1001.54
2022-12-19T09:50:04.348Z,1001.55
2022-12-19T09:51:10.601Z,1001.56
2022-12-19T09:52:04.305Z,1001.54
2022-12-19T09:53:04.287Z,1001.51
2022-12-19T09:54:04.265Z,1001.56
2022-12-19T09:55:04.251Z,1001.57
2022-12-19T09:56:04.243Z,1001.57
2022-12-19T09:57:04.242Z,1001.57
2022-12-19T09:58:05.908Z,1001.60
2022-12-19T09:59:04.171Z,1001.62
2022-12-19T10:00:04.147Z,1001.62
2022-12-19T10:01:04.130Z,1001.69
2022-12-19T10:02:04.257Z,1001.70
2022-12-19T10:03:04.301Z,1001.74
2022-12-19T10:04:04.114Z,1001.70
2022-12-19T10:05:24.269Z,1001.68
2022-12-19T10:07:07.707Z,1001.61
2022-12-19T10:07:13.924Z,1001.62
2022-12-19T10:08:09.130Z,1001.60
2022-12-19T10:09:45.363Z,1001.64
2022-12-19T10:12:35.452Z,1001.59
2022-12-19T10:12:39.688Z,1001.62
2022-12-19T10:12:43.925Z,1001.68
2022-12-19T10:13:11.268Z,1001.68
2022-12-19T10:14:03.887Z,1001.64
2022-12-19T10:15:03.861Z,1001.65
2022-12-19T10:16:03.894Z,1001.59
2022-12-19T10:17:23.729Z,1001.61
2022-12-19T10:18:03.908Z,1001.52
2022-12-19T10:19:03.790Z,1001.47
2022-12-19T10:20:03.770Z,1001.51
2022-12-19T10:21:03.764Z,1001.52
2022-12-19T10:22:19.714Z,1001.50
2022-12-19T10:23:03.719Z,1001.53
2022-12-19T10:24:03.707Z,1001.49
2022-12-19T10:25:09.499Z,1001.51
2022-12-19T10:26:03.656Z,1001.53
2022-12-19T10:27:03.643Z,1001.53
2022-12-19T10:28:03.622Z,1001.50
2022-12-19T10:29:03.601Z,1001.50
2022-12-19T10:30:03.585Z,1001.47
2022-12-19T10:31:12.588Z,1001.39
2022-12-19T10:32:03.623Z,1001.36
2022-12-19T10:33:03.543Z,1001.34
2022-12-19T10:34:03.642Z,1001.38
2022-12-19T10:35:03.508Z,1001.31
2022-12-19T10:36:03.494Z,1001.34
2022-12-19T10:37:24.527Z,1001.29
2022-12-19T10:38:03.439Z,1001.29
2022-12-19T10:39:03.457Z,1001.30
2022-12-19T10:40:03.422Z,1001.25
2022-12-19T10:41:03.380Z,1001.29
2022-12-19T10:42:03.355Z,1001.30
2022-12-19T10:43:10.725Z,1001.28
2022-12-19T10:44:03.331Z,1001.32
2022-12-19T10:45:03.315Z,1001.28
2022-12-19T10:46:03.331Z,1001.22
2022-12-19T10:47:04.503Z,1001.21
2022-12-19T10:48:03.244Z,1001.25
2022-12-19T10:49:03.241Z,1001.22
2022-12-19T10:50:09.203Z,1001.19
2022-12-19T10:51:06.768Z,1001.18
2022-12-19T10:52:03.183Z,1001.18
2022-12-19T10:53:03.159Z,1001.19
2022-12-19T10:54:03.140Z,1001.18
2022-12-19T10:55:03.142Z,1001.15
2022-12-19T10:56:03.152Z,1001.14
2022-12-19T10:57:03.083Z,1001.09
2022-12-19T10:58:03.059Z,1001.08
2022-12-19T10:59:03.384Z,1001.09
2022-12-19T11:00:03.031Z,1001.08
2022-12-19T11:01:03.011Z,1001.11
2022-12-19T11:02:07.228Z,1001.08
2022-12-19T11:03:03.071Z,1001.05
2022-12-19T11:04:02.974Z,1001.00
2022-12-19T11:05:02.966Z,1000.98
2022-12-19T11:06:03.002Z,1000.93
2022-12-19T11:07:02.933Z,1000.91
2022-12-19T11:08:02.970Z,1000.88
2022-12-19T11:09:02.888Z,1000.86
2022-12-19T11:10:36.776Z,1000.93
2022-12-19T11:14:07.191Z,1000.90
2022-12-19T11:15:40.254Z,1000.90
2022-12-19T11:16:58.472Z,1000.83
2022-12-19T11:19:21.405Z,1000.88
2022-12-19T11:19:42.387Z,1000.84
2022-12-19T11:23:22.261Z,1000.89
2022-12-19T11:23:35.383Z,1000.89
2022-12-19T11:29:15.163Z,1000.87
2022-12-19T11:29:16.566Z,1000.86
2022-12-19T11:29:19.608Z,1000.87
2022-12-19T11:29:43.950Z,1001.01
2022-12-19T11:29:44.433Z,1000.87
2022-12-19T11:29:45.592Z,1000.89
2022-12-19T11:29:54.114Z,1000.88
2022-12-19T11:30:39.083Z,1000.95
2022-12-19T11:30:43.175Z,1000.96
2022-12-19T11:30:45.727Z,1000.94
2022-12-19T11:30:48.369Z,1000.96
2022-12-19T11:30:48.666Z,1000.90
2022-12-19T11:32:14.250Z,1000.88
2022-12-19T11:33:02.453Z,1000.88
2022-12-19T11:34:02.395Z,1000.92
2022-12-19T11:35:02.367Z,1000.88
2022-12-19T11:36:02.348Z,1000.82
2022-12-19T11:37:02.335Z,1000.81
2022-12-19T11:38:02.330Z,1000.80
2022-12-19T11:39:02.293Z,1000.81
2022-12-19T11:40:02.301Z,1000.80
2022-12-19T11:41:02.251Z,1000.79
2022-12-19T13:03:57.510Z,1000.06
2022-12-19T13:04:57.486Z,1000.01
2022-12-19T13:07:01.977Z,1000.04
2022-12-19T13:08:01.658Z,1000.05
2022-12-19T13:24:18.459Z,999.91
2022-12-19T13:25:18.611Z,999.88
2022-12-19T13:27:25.087Z,999.86
2022-12-19T13:28:24.990Z,999.87
2022-12-19T15:33:09.771Z,999.46
2022-12-19T15:34:38.388Z,999.45
2022-12-19T15:36:14.465Z,999.39
2022-12-19T15:37:14.352Z,999.39
2022-12-19T16:02:16.702Z,999.25
2022-12-19T16:03:24.889Z,999.20
2022-12-19T16:38:49.565Z,999.01
2022-12-19T16:39:49.336Z,999.04
2022-12-19T16:41:56.448Z,999.04
2022-12-19T16:42:56.298Z,999.05
2022-12-19T16:45:03.328Z,999.04
2022-12-19T16:46:03.443Z,999.03
2022-12-19T16:47:03.117Z,999.03
2022-12-19T16:48:03.588Z,998.99
2022-12-19T16:49:02.957Z,999.04
2022-12-19T16:50:02.939Z,999.01
2022-12-19T16:51:02.941Z,998.99
2022-12-19T16:52:02.942Z,998.93
2022-12-19T16:53:02.905Z,998.92
2022-12-19T16:54:02.888Z,998.89
2022-12-19T16:55:02.841Z,998.86
2022-12-19T16:56:02.832Z,998.87
2022-12-19T16:57:02.801Z,998.86
2022-12-19T16:58:02.781Z,998.92
2022-12-19T16:59:02.885Z,998.90
2022-12-19T17:00:02.742Z,998.93
2022-12-19T17:01:02.894Z,998.96
2022-12-19T17:02:02.828Z,998.99
2022-12-19T17:03:02.863Z,998.95
2022-12-19T17:04:02.684Z,998.94
2022-12-19T17:05:02.654Z,998.94
2022-12-19T17:06:02.646Z,998.97
2022-12-19T17:07:02.611Z,998.97
2022-12-19T17:08:02.591Z,998.95
2022-12-19T17:09:02.601Z,998.93
2022-12-19T17:10:02.594Z,998.90
2022-12-19T17:11:02.539Z,998.90
2022-12-19T17:12:02.530Z,998.88
2022-12-19T17:13:02.498Z,998.85
2022-12-19T17:14:02.477Z,998.88
2022-12-19T17:15:02.514Z,998.89
2022-12-19T17:16:02.466Z,998.92
2022-12-19T17:17:02.479Z,998.94
2022-12-19T17:18:02.480Z,998.92
2022-12-19T17:19:02.402Z,998.90
2022-12-19T17:20:02.436Z,998.93
2022-12-19T17:21:02.380Z,998.88
2022-12-19T17:22:02.323Z,998.91
2022-12-19T17:23:02.313Z,998.88
2022-12-19T17:24:02.302Z,998.89
2022-12-19T17:25:02.275Z,998.92
2022-12-19T17:26:02.255Z,998.94
2022-12-19T17:27:02.234Z,998.99
2022-12-19T17:28:02.248Z,999.01
2022-12-19T17:29:02.226Z,999.06
2022-12-19T17:30:02.165Z,999.11
2022-12-19T17:31:02.196Z,999.11
2022-12-19T17:32:02.179Z,999.13
2022-12-19T17:33:02.107Z,999.19
2022-12-19T17:34:02.134Z,999.22
2022-12-19T17:35:02.085Z,999.22
2022-12-19T17:36:02.067Z,999.27
2022-12-19T17:37:02.053Z,999.30
2022-12-19T17:38:02.015Z,999.24
2022-12-19T17:39:01.996Z,999.22
2022-12-19T17:40:02.016Z,999.24
2022-12-19T17:41:01.961Z,999.25
2022-12-19T17:42:01.940Z,999.31
2022-12-19T17:43:01.816Z,999.33
2022-12-19T17:44:01.905Z,999.33
2022-12-19T17:45:01.877Z,999.36
2022-12-19T17:46:01.917Z,999.36
2022-12-19T17:47:01.840Z,999.34
2022-12-19T17:48:03.099Z,999.34
2022-12-19T17:49:01.804Z,999.30
2022-12-19T17:50:01.792Z,999.27
2022-12-19T17:51:01.759Z,999.25
2022-12-19T17:52:01.762Z,999.22
2022-12-19T17:53:01.753Z,999.25